Time;durP1;ratioP1;P1;durP2;ratioP2;P2;SDS_P1;SDS_P2;PMS_P1;PMS_P2;Temp;Humidity;BMP_temperature;BMP_pressure;BME280_temperature;BME280_humidity;BME280_pressure;Samples;Min_cycle;Max_cycle;Signal;HPM_P1;HPM_P2
2022/10/13 00:01:17;;;;;;;13.82;6.05;;;13.80;93.00;;;;;;5073033;28;20039;-71
2022/10/13 00:03:46;;;;;;;10.05;5.95;;;13.80;93.00;;;;;;5072829;28;20037;-72
2022/10/13 00:06:15;;;;;;;13.63;6.63;;;13.80;93.20;;;;;;5073078;28;20453;-71
2022/10/13 00:08:41;;;;;;;8.98;6.03;;;13.80;93.50;;;;;;5079961;28;20031;-72
2022/10/13 00:11:14;;;;;;;12.73;6.28;;;13.70;93.50;;;;;;5093141;28;20452;-71
2022/10/13 00:13:41;;;;;;;13.38;7.50;;;13.70;93.70;;;;;;5092844;28;20082;-72
2022/10/13 00:16:07;;;;;;;15.95;7.10;;;13.60;94.10;;;;;;5093387;28;20024;-71
2022/10/13 00:18:33;;;;;;;15.55;6.72;;;13.60;94.00;;;;;;5093337;28;20036;-71
2022/10/13 00:20:59;;;;;;;12.57;6.22;;;13.60;94.20;;;;;;5092865;28;20069;-71
2022/10/13 00:23:24;;;;;;;12.07;6.55;;;13.60;94.20;;;;;;5093104;28;20449;-73
2022/10/13 00:25:50;;;;;;;10.60;5.68;;;13.60;94.40;;;;;;5092720;28;20101;-71
2022/10/13 00:28:18;;;;;;;16.00;6.90;;;13.70;94.20;;;;;;5092938;28;20028;-73
2022/10/13 00:30:44;;;;;;;17.35;7.32;;;13.60;94.20;;;;;;5092761;28;20495;-73
2022/10/13 00:33:11;;;;;;;12.73;7.45;;;13.60;94.50;;;;;;5093230;28;20058;-73
2022/10/13 00:35:45;;;;;;;13.98;7.50;;;13.60;94.90;;;;;;5093277;28;20030;-72
2022/10/13 00:38:11;;;;;;;20.65;7.78;;;13.60;94.80;;;;;;5089847;28;20055;-72
2022/10/13 00:40:51;;;;;;;16.30;7.20;;;13.50;94.80;;;;;;5072477;28;20052;-72
2022/10/13 00:43:18;;;;;;;13.15;7.13;;;13.50;95.10;;;;;;5072802;28;20071;-72
2022/10/13 00:45:44;;;;;;;10.63;6.93;;;13.60;95.00;;;;;;5072336;28;20035;-72
2022/10/13 00:48:11;;;;;;;16.52;7.55;;;13.50;94.70;;;;;;5072669;28;20059;-72
2022/10/13 00:50:40;;;;;;;13.85;7.43;;;13.50;95.20;;;;;;5072771;28;20028;-72
2022/10/13 00:53:06;;;;;;;18.33;7.90;;;13.50;95.20;;;;;;5072863;28;20029;-72
2022/10/13 00:55:37;;;;;;;16.90;8.82;;;13.50;95.40;;;;;;5072542;28;20045;-72
2022/10/13 00:58:06;;;;;;;11.93;7.97;;;13.40;95.70;;;;;;5072632;28;20029;-72
2022/10/13 01:00:33;;;;;;;17.13;8.50;;;13.40;95.90;;;;;;5072552;28;20491;-72
2022/10/13 01:03:00;;;;;;;17.63;8.00;;;13.40;96.10;;;;;;5071844;28;20789;-71
2022/10/13 01:05:25;;;;;;;16.70;7.57;;;13.30;96.20;;;;;;5072588;28;20346;-72
2022/10/13 01:07:52;;;;;;;12.68;6.97;;;13.30;96.20;;;;;;5072141;28;20150;-72
2022/10/13 01:10:26;;;;;;;16.60;8.20;;;13.30;96.30;;;;;;5072394;28;20028;-72
2022/10/13 01:13:08;;;;;;;13.68;7.63;;;13.30;96.30;;;;;;5072002;28;20039;-71
2022/10/13 01:15:49;;;;;;;13.23;7.72;;;13.30;96.20;;;;;;5072554;28;20037;-71
2022/10/13 01:18:20;;;;;;;13.75;7.55;;;13.20;96.50;;;;;;5072182;28;20391;-70
2022/10/13 01:21:07;;;;;;;16.40;7.40;;;13.20;96.60;;;;;;5072042;28;20024;-72
2022/10/13 01:24:21;;;;;;;14.40;7.72;;;13.20;96.40;;;;;;5072497;28;20107;-73
2022/10/13 01:27:24;;;;;;;14.15;7.90;;;13.10;96.70;;;;;;4982940;28;20125;-74
2022/10/13 01:30:20;;;;;;;17.48;7.85;;;13.00;96.90;;;;;;5072030;28;20129;-72
2022/10/13 01:33:10;;;;;;;14.57;7.97;;;13.00;97.10;;;;;;5072009;28;20399;-72
2022/10/13 01:35:52;;;;;;;13.35;7.80;;;13.00;97.30;;;;;;5072296;28;20025;-72
2022/10/13 01:38:36;;;;;;;15.43;7.93;;;12.90;97.50;;;;;;5072311;28;20468;-72
2022/10/13 01:41:12;;;;;;;14.57;8.45;;;12.90;97.60;;;;;;5071899;28;20021;-72
2022/10/13 01:43:44;;;;;;;15.48;8.23;;;12.90;97.80;;;;;;5072143;28;20037;-73
2022/10/13 01:46:15;;;;;;;13.43;8.30;;;12.90;97.70;;;;;;5072134;28;20032;-71
2022/10/13 01:48:43;;;;;;;16.58;8.35;;;12.90;97.70;;;;;;5072083;28;20028;-72
2022/10/13 01:51:13;;;;;;;16.08;8.75;;;12.90;97.80;;;;;;5057516;28;20029;-72
2022/10/13 01:53:39;;;;;;;18.05;8.57;;;12.80;97.80;;;;;;5075428;28;20063;-72
2022/10/13 01:56:05;;;;;;;16.95;8.55;;;12.80;98.20;;;;;;5075291;28;20145;-72
2022/10/13 01:58:33;;;;;;;20.30;8.43;;;12.80;98.30;;;;;;5075703;28;20457;-72
2022/10/13 02:01:16;;;;;;;15.50;8.18;;;12.80;98.40;;;;;;5075314;28;20025;-72
2022/10/13 02:04:17;;;;;;;16.73;8.90;;;12.80;98.50;;;;;;5075514;28;20032;-73
2022/10/13 02:07:01;;;;;;;18.50;8.10;;;12.70;98.70;;;;;;5075489;28;20070;-72
2022/10/13 02:09:34;;;;;;;16.90;9.18;;;12.70;98.90;;;;;;5075434;28;20021;-71
2022/10/13 02:12:15;;;;;;;14.40;8.68;;;12.70;99.10;;;;;;5074785;28;20085;-71
2022/10/13 02:14:43;;;;;;;17.77;8.73;;;12.70;98.90;;;;;;5076136;28;20043;-72
2022/10/13 02:17:09;;;;;;;15.98;8.63;;;12.70;99.00;;;;;;5055122;28;20025;-72
2022/10/13 02:19:37;;;;;;;21.23;9.68;;;12.60;99.20;;;;;;5055199;28;20068;-72
2022/10/13 02:22:04;;;;;;;16.67;9.35;;;12.60;99.10;;;;;;5054798;28;20029;-72
2022/10/13 02:24:31;;;;;;;20.45;9.90;;;12.70;99.30;;;;;;5055196;28;20112;-72
2022/10/13 02:26:57;;;;;;;16.60;8.43;;;12.70;99.10;;;;;;5054654;28;20105;-73
2022/10/13 02:29:22;;;;;;;15.70;9.48;;;12.70;99.10;;;;;;5057071;28;20471;-72
2022/10/13 02:31:48;;;;;;;17.48;9.48;;;12.70;99.30;;;;;;5074182;28;20025;-70
2022/10/13 02:34:14;;;;;;;17.63;9.30;;;12.70;99.30;;;;;;5056999;28;20469;-72
2022/10/13 02:36:40;;;;;;;18.52;9.27;;;12.70;99.40;;;;;;5075031;28;20469;-72
2022/10/13 02:39:08;;;;;;;16.10;9.00;;;12.80;99.50;;;;;;5074506;28;20051;-71
2022/10/13 02:41:34;;;;;;;19.80;10.02;;;12.80;99.40;;;;;;5074943;28;20056;-72
2022/10/13 02:43:59;;;;;;;18.67;9.93;;;12.80;99.20;;;;;;5074409;28;20495;-71
2022/10/13 02:46:25;;;;;;;18.08;9.88;;;12.80;99.20;;;;;;5074563;28;20025;-72
2022/10/13 02:48:51;;;;;;;23.38;8.93;;;12.90;99.20;;;;;;5074328;28;20079;-70
2022/10/13 02:51:16;;;;;;;14.10;9.57;;;12.90;99.40;;;;;;5074871;28;20052;-73
2022/10/13 02:53:42;;;;;;;18.08;9.63;;;12.90;99.30;;;;;;5074470;28;20036;-73
2022/10/13 02:56:08;;;;;;;23.65;10.82;;;13.00;99.40;;;;;;5074156;28;20210;-72
2022/10/13 02:58:34;;;;;;;19.02;9.60;;;13.00;99.30;;;;;;5074610;28;20028;-71
2022/10/13 03:01:07;;;;;;;15.82;9.38;;;13.00;99.40;;;;;;5055687;28;20115;-73
2022/10/13 03:03:33;;;;;;;20.17;9.70;;;13.00;99.40;;;;;;5074458;28;20060;-72
2022/10/13 03:05:59;;;;;;;18.80;9.70;;;13.00;99.40;;;;;;5074085;28;20469;-72
2022/10/13 03:08:25;;;;;;;22.35;10.77;;;13.00;99.40;;;;;;5074499;28;20450;-72
2022/10/13 03:10:51;;;;;;;21.20;10.63;;;13.00;99.50;;;;;;5073923;28;20119;-72
2022/10/13 03:13:17;;;;;;;16.75;9.35;;;13.10;99.30;;;;;;5074043;28;20107;-72
2022/10/13 03:15:42;;;;;;;16.50;9.45;;;13.10;99.50;;;;;;5056331;28;20461;-72
2022/10/13 03:18:08;;;;;;;20.65;10.65;;;13.10;99.70;;;;;;5073837;28;20028;-72
2022/10/13 03:20:34;;;;;;;14.15;9.35;;;13.10;99.50;;;;;;5074042;28;20491;-72
2022/10/13 03:22:59;;;;;;;20.92;10.70;;;13.20;99.20;;;;;;5073615;28;20055;-71
2022/10/13 03:25:25;;;;;;;16.75;9.95;;;13.20;99.30;;;;;;5074125;28;20021;-71
2022/10/13 03:27:51;;;;;;;18.30;10.38;;;13.20;99.30;;;;;;5074026;28;20044;-72
2022/10/13 03:30:16;;;;;;;21.55;10.88;;;13.20;99.40;;;;;;5074322;28;20032;-74
2022/10/13 03:32:42;;;;;;;23.02;10.38;;;13.20;99.30;;;;;;5073953;28;20029;-72
2022/10/13 03:35:08;;;;;;;21.67;11.00;;;13.20;99.30;;;;;;5073720;28;20035;-71
2022/10/13 03:37:34;;;;;;;18.85;10.63;;;13.20;99.00;;;;;;5073792;28;20155;-72
2022/10/13 03:39:59;;;;;;;20.08;11.30;;;13.30;99.20;;;;;;5073344;28;20024;-72
2022/10/13 03:42:25;;;;;;;23.58;11.60;;;13.30;99.30;;;;;;5073471;28;20036;-72
2022/10/13 03:44:50;;;;;;;18.67;10.35;;;13.30;99.10;;;;;;5073648;28;20105;-73
2022/10/13 03:47:16;;;;;;;19.38;10.35;;;13.30;99.00;;;;;;5073294;28;20056;-71
2022/10/13 03:49:42;;;;;;;20.27;11.38;;;13.30;99.10;;;;;;5073638;28;20111;-73
2022/10/13 03:52:07;;;;;;;25.58;12.48;;;13.40;99.20;;;;;;5072805;28;20029;-72
2022/10/13 03:54:33;;;;;;;24.13;12.18;;;13.40;99.40;;;;;;5073436;28;20032;-73
2022/10/13 03:56:58;;;;;;;22.17;13.23;;;13.40;99.40;;;;;;5072472;28;20048;-72
2022/10/13 03:59:24;;;;;;;21.00;11.77;;;13.40;99.60;;;;;;5073444;28;20024;-73
2022/10/13 04:01:50;;;;;;;24.33;13.45;;;13.40;99.70;;;;;;5073421;28;20192;-73
2022/10/13 04:04:15;;;;;;;28.10;13.93;;;13.40;99.60;;;;;;5072880;28;20036;-72
2022/10/13 04:06:41;;;;;;;26.95;15.18;;;13.50;99.90;;;;;;5073296;28;20028;-72
2022/10/13 04:09:08;;;;;;;41.83;16.73;;;13.50;99.90;;;;;;5083875;28;20094;-72
2022/10/13 04:11:34;;;;;;;31.23;15.43;;;13.50;99.90;;;;;;5093256;28;20050;-72
2022/10/13 04:13:59;;;;;;;37.05;16.83;;;13.50;99.90;;;;;;5091931;28;20036;-72
2022/10/13 04:16:28;;;;;;;36.00;17.13;;;13.50;99.90;;;;;;5074582;28;20032;-72
2022/10/13 04:18:57;;;;;;;39.50;17.23;;;13.50;99.90;;;;;;5072875;28;20024;-72
2022/10/13 04:21:23;;;;;;;36.67;16.83;;;13.50;99.90;;;;;;5072998;28;20365;-72
2022/10/13 04:23:49;;;;;;;45.50;18.73;;;13.50;99.90;;;;;;5072885;28;20036;-71
2022/10/13 04:26:21;;;;;;;47.75;20.05;;;13.50;99.90;;;;;;5072338;28;20044;-71
2022/10/13 04:28:48;;;;;;;51.03;21.77;;;13.50;99.90;;;;;;5054881;28;20031;-71
2022/10/13 04:31:15;;;;;;;46.22;20.02;;;13.60;99.90;;;;;;5072069;28;20074;-72
2022/10/13 04:33:41;;;;;;;54.13;22.70;;;13.60;99.90;;;;;;5072593;28;20051;-72
2022/10/13 04:36:08;;;;;;;51.67;22.38;;;13.70;99.90;;;;;;5071985;28;20020;-72
2022/10/13 04:38:34;;;;;;;55.35;23.30;;;13.70;99.90;;;;;;5073018;28;20103;-73
2022/10/13 04:41:04;;;;;;;49.95;22.27;;;13.70;99.90;;;;;;5054503;28;20055;-71
2022/10/13 04:43:30;;;;;;;56.65;23.08;;;13.70;99.90;;;;;;5072675;28;20041;-72
2022/10/13 04:46:04;;;;;;;52.00;22.80;;;13.70;99.90;;;;;;5072409;28;20361;-73
2022/10/13 04:48:30;;;;;;;56.15;23.10;;;13.70;99.90;;;;;;5072719;28;20024;-73
2022/10/13 04:51:05;;;;;;;48.25;21.80;;;13.70;99.90;;;;;;5072642;28;20112;-72
2022/10/13 04:53:31;;;;;;;57.72;22.80;;;13.70;99.90;;;;;;5072801;28;20029;-72
2022/10/13 04:56:01;;;;;;;48.72;21.98;;;13.70;99.90;;;;;;5072268;28;20135;-72
2022/10/13 04:58:27;;;;;;;43.45;21.50;;;13.70;99.90;;;;;;5072323;28;20024;-72
2022/10/13 05:00:52;;;;;;;45.67;20.90;;;13.70;99.90;;;;;;5072074;28;20465;-72
2022/10/13 05:03:18;;;;;;;46.15;20.30;;;13.60;99.90;;;;;;5071856;28;20078;-72
2022/10/13 05:05:44;;;;;;;39.38;19.35;;;13.70;99.90;;;;;;5072405;28;20033;-72
2022/10/13 05:08:10;;;;;;;48.53;20.95;;;13.70;99.90;;;;;;5069088;28;20032;-71
2022/10/13 05:10:35;;;;;;;50.58;20.05;;;13.60;99.90;;;;;;5072130;28;20025;-71
2022/10/13 05:13:01;;;;;;;38.42;18.50;;;13.70;99.90;;;;;;5071985;28;20029;-70
2022/10/13 05:15:27;;;;;;;40.45;18.15;;;13.70;99.90;;;;;;5072134;28;20529;-72
2022/10/13 05:17:52;;;;;;;42.45;18.45;;;13.70;99.90;;;;;;5072165;28;20024;-72
2022/10/13 05:20:18;;;;;;;40.53;18.45;;;13.70;99.90;;;;;;5070645;28;20028;-72
2022/10/13 05:22:44;;;;;;;33.88;15.00;;;13.60;99.90;;;;;;5072371;28;20074;-72
2022/10/13 05:25:09;;;;;;;39.63;16.80;;;13.60;99.90;;;;;;5073984;28;20036;-72
2022/10/13 05:27:35;;;;;;;36.47;16.50;;;13.60;99.90;;;;;;5076109;28;20078;-72
2022/10/13 05:30:00;;;;;;;34.85;14.52;;;13.60;99.90;;;;;;5075811;28;20407;-72
2022/10/13 05:32:26;;;;;;;26.50;15.15;;;13.60;99.90;;;;;;5075113;28;20104;-71
2022/10/13 05:34:52;;;;;;;35.03;16.20;;;13.60;99.90;;;;;;5057962;28;20095;-73
2022/10/13 05:37:17;;;;;;;33.35;17.55;;;13.60;99.90;;;;;;5075512;28;20528;-71
2022/10/13 05:39:43;;;;;;;33.03;16.02;;;13.60;99.90;;;;;;5076057;28;20020;-71
2022/10/13 05:42:09;;;;;;;32.50;16.85;;;13.60;99.90;;;;;;5057461;28;20036;-71
2022/10/13 05:44:36;;;;;;;34.50;16.55;;;13.60;99.90;;;;;;5065068;28;20033;-72
2022/10/13 05:47:02;;;;;;;36.20;18.52;;;13.60;99.90;;;;;;5055967;28;20029;-71
2022/10/13 05:49:28;;;;;;;43.05;18.80;;;13.60;99.90;;;;;;5055183;28;20036;-70
2022/10/13 05:52:01;;;;;;;29.42;14.45;;;13.70;99.90;;;;;;5069691;28;20021;-72
2022/10/13 05:54:39;;;;;;;26.23;14.10;;;13.70;99.90;;;;;;5083043;28;20028;-72
2022/10/13 05:57:16;;;;;;;33.25;15.85;;;13.70;99.90;;;;;;5095671;28;20198;-72
2022/10/13 05:59:50;;;;;;;31.63;15.38;;;13.60;99.90;;;;;;5095584;28;20491;-72
2022/10/13 06:02:18;;;;;;;33.65;15.73;;;13.70;99.90;;;;;;5095071;28;20396;-72
2022/10/13 06:04:47;;;;;;;30.30;15.52;;;13.60;99.90;;;;;;5095543;28;20040;-72
2022/10/13 06:07:13;;;;;;;31.27;17.75;;;13.70;99.90;;;;;;5095124;28;20119;-73
2022/10/13 06:09:40;;;;;;;28.15;14.60;;;13.70;99.90;;;;;;5095766;28;20127;-72
2022/10/13 06:12:07;;;;;;;32.90;17.20;;;13.70;99.90;;;;;;5095093;28;20027;-71
2022/10/13 06:14:33;;;;;;;29.10;15.50;;;13.70;99.90;;;;;;5095722;28;20032;-71
2022/10/13 06:16:59;;;;;;;34.47;16.63;;;13.70;99.90;;;;;;5095289;28;20384;-72
2022/10/13 06:19:24;;;;;;;30.30;16.30;;;13.70;99.90;;;;;;5094988;28;20035;-71
2022/10/13 06:21:50;;;;;;;27.92;15.18;;;13.70;99.90;;;;;;5077252;28;20028;-71
2022/10/13 06:24:16;;;;;;;34.65;17.00;;;13.70;99.90;;;;;;5094747;28;20036;-71
2022/10/13 06:26:41;;;;;;;31.80;16.88;;;13.70;99.90;;;;;;5095471;28;20475;-71
2022/10/13 06:29:07;;;;;;;28.92;15.38;;;13.70;99.90;;;;;;5095224;28;20024;-71
2022/10/13 06:31:33;;;;;;;22.60;12.38;;;13.70;99.90;;;;;;5077213;28;20028;-72
2022/10/13 06:33:59;;;;;;;32.55;12.10;;;13.70;99.90;;;;;;5094846;28;20028;-72
2022/10/13 06:36:26;;;;;;;24.50;10.77;;;13.70;99.90;;;;;;5093601;28;20435;-72
2022/10/13 06:38:52;;;;;;;19.77;11.25;;;13.70;99.90;;;;;;5076994;28;20073;-73
2022/10/13 06:41:17;;;;;;;19.98;10.18;;;13.80;99.90;;;;;;5094568;28;20024;-71
2022/10/13 06:43:43;;;;;;;18.90;10.98;;;13.80;99.90;;;;;;5094833;28;20031;-73
2022/10/13 06:46:10;;;;;;;18.30;10.38;;;13.80;99.90;;;;;;5094579;28;20107;-72
2022/10/13 06:48:36;;;;;;;21.83;10.23;;;13.80;99.90;;;;;;5094879;28;20028;-72
2022/10/13 06:51:07;;;;;;;25.65;10.23;;;13.80;99.90;;;;;;5094627;28;20024;-72
2022/10/13 06:53:33;;;;;;;;;;;13.80;99.80;;;;;;5095398;28;20059;-71
2022/10/13 06:56:01;;;;;;;21.17;10.48;;;13.80;99.80;;;;;;5094798;28;19970;-72
2022/10/13 06:58:26;;;;;;;22.65;9.32;;;13.80;99.60;;;;;;5094644;28;20036;-72
2022/10/13 07:00:53;;;;;;;28.40;10.50;;;13.80;99.40;;;;;;5094606;28;20468;-73
2022/10/13 07:03:19;;;;;;;25.13;9.90;;;13.80;99.10;;;;;;5093879;28;20043;-72
2022/10/13 07:05:44;;;;;;;20.42;9.75;;;13.80;99.20;;;;;;5094663;28;20023;-72
2022/10/13 07:08:10;;;;;;;21.13;10.32;;;13.80;99.10;;;;;;5094125;28;20372;-72
2022/10/13 07:10:39;;;;;;;19.85;10.40;;;13.80;98.90;;;;;;5094204;28;20502;-73
2022/10/13 07:13:05;;;;;;;21.30;10.70;;;13.80;99.10;;;;;;5094600;28;20035;-72
2022/10/13 07:15:31;;;;;;;22.40;10.65;;;13.90;99.10;;;;;;5094269;28;20034;-72
2022/10/13 07:17:56;;;;;;;26.02;10.68;;;13.90;98.90;;;;;;5094768;28;20103;-73
2022/10/13 07:20:23;;;;;;;20.45;10.50;;;13.90;99.00;;;;;;5075994;28;20020;-72
2022/10/13 07:22:52;;;;;;;22.75;11.77;;;13.90;99.20;;;;;;5094991;28;20029;-71
2022/10/13 07:25:18;;;;;;;24.52;11.95;;;14.00;99.10;;;;;;5094470;28;20519;-72
2022/10/13 07:27:43;;;;;;;23.10;11.93;;;14.00;99.20;;;;;;5094729;28;20028;-72
2022/10/13 07:30:10;;;;;;;24.88;12.20;;;14.00;99.10;;;;;;5077020;28;20024;-71
2022/10/13 07:32:37;;;;;;;27.95;13.30;;;14.10;99.20;;;;;;5094861;28;20020;-71
2022/10/13 07:35:04;;;;;;;29.42;13.40;;;14.10;99.40;;;;;;5094650;28;20107;-72
2022/10/13 07:37:30;;;;;;;26.67;12.95;;;14.10;99.30;;;;;;5094499;28;20088;-72
2022/10/13 07:39:55;;;;;;;27.65;14.00;;;14.10;99.40;;;;;;5094824;28;20095;-72
2022/10/13 07:42:21;;;;;;;29.35;13.68;;;14.20;99.70;;;;;;5094201;28;20055;-71
2022/10/13 07:44:47;;;;;;;33.67;15.18;;;14.20;99.70;;;;;;5094164;28;20028;-72
2022/10/13 07:47:12;;;;;;;35.78;14.57;;;14.20;99.60;;;;;;5093969;28;20036;-71
2022/10/13 07:49:38;;;;;;;24.88;13.10;;;14.30;99.30;;;;;;5093782;28;20039;-71
2022/10/13 07:52:04;;;;;;;26.42;15.18;;;14.30;99.30;;;;;;5092829;28;20381;-72
2022/10/13 07:54:30;;;;;;;33.38;14.48;;;14.30;99.30;;;;;;5073117;28;20047;-71
2022/10/13 07:56:55;;;;;;;32.92;15.05;;;14.30;99.30;;;;;;5073301;28;20502;-71
2022/10/13 07:59:21;;;;;;;32.50;15.35;;;14.30;99.70;;;;;;5073377;28;20074;-72
2022/10/13 08:01:47;;;;;;;38.03;15.55;;;14.30;99.70;;;;;;5092766;28;20030;-71
2022/10/13 08:04:13;;;;;;;32.38;15.18;;;14.30;99.90;;;;;;5093087;28;20074;-71
2022/10/13 08:06:40;;;;;;;34.17;16.15;;;14.30;99.60;;;;;;5093082;28;20564;-72
2022/10/13 08:09:06;;;;;;;35.75;16.25;;;14.30;99.90;;;;;;5093353;28;20111;-72
2022/10/13 08:11:32;;;;;;;40.15;18.92;;;14.30;99.90;;;;;;5093579;28;20064;-72
2022/10/13 08:14:00;;;;;;;37.83;19.38;;;14.40;99.90;;;;;;5097219;28;20081;-73
2022/10/13 08:16:30;;;;;;;41.10;19.33;;;14.40;99.90;;;;;;5096503;28;20032;-72
2022/10/13 08:18:57;;;;;;;47.25;20.05;;;14.40;99.90;;;;;;5075523;28;20031;-73
2022/10/13 08:21:23;;;;;;;34.97;19.38;;;14.30;99.90;;;;;;5092448;28;20114;-72
2022/10/13 08:23:49;;;;;;;43.47;21.05;;;14.30;99.90;;;;;;5092969;28;20035;-72
2022/10/13 08:26:26;;;;;;;47.85;22.17;;;14.30;99.90;;;;;;5092474;28;20161;-70
2022/10/13 08:28:52;;;;;;;47.47;22.02;;;14.30;99.90;;;;;;5092606;28;20050;-71
2022/10/13 08:31:19;;;;;;;50.80;22.73;;;14.30;99.90;;;;;;5092673;28;20392;-71
2022/10/13 08:33:46;;;;;;;44.50;20.58;;;14.20;99.90;;;;;;5092913;28;20097;-72
2022/10/13 08:36:13;;;;;;;50.20;21.85;;;14.20;99.90;;;;;;5092837;28;20058;-72
2022/10/13 08:38:39;;;;;;;45.97;20.70;;;14.20;99.90;;;;;;5074243;28;20111;-72
2022/10/13 08:41:22;;;;;;;47.05;21.27;;;14.20;99.90;;;;;;5092435;28;20408;-72
2022/10/13 08:43:54;;;;;;;40.88;19.02;;;14.20;99.90;;;;;;5092878;28;20038;-73
2022/10/13 08:46:25;;;;;;;38.33;19.20;;;14.20;99.90;;;;;;5074143;28;20115;-71
2022/10/13 08:48:51;;;;;;;44.85;19.50;;;14.10;99.90;;;;;;5092785;28;20021;-71
2022/10/13 08:51:17;;;;;;;39.20;19.02;;;14.20;99.90;;;;;;5092715;28;20364;-72
2022/10/13 08:53:45;;;;;;;46.35;19.50;;;14.20;99.90;;;;;;5092445;28;20028;-72
2022/10/13 08:56:23;;;;;;;36.40;17.60;;;14.20;99.90;;;;;;5092403;28;20112;-72
2022/10/13 08:58:50;;;;;;;43.17;18.80;;;14.30;99.90;;;;;;5074190;28;20031;-71
2022/10/13 09:01:25;;;;;;;41.17;19.08;;;14.30;99.90;;;;;;5092337;28;20039;-72
2022/10/13 09:04:09;;;;;;;40.67;18.23;;;14.30;99.90;;;;;;5092485;28;20028;-72
2022/10/13 09:06:39;;;;;;;39.42;19.02;;;14.40;99.90;;;;;;5092202;28;20107;-72
2022/10/13 09:09:14;;;;;;;38.97;17.75;;;14.40;99.90;;;;;;5074907;28;20028;-73
2022/10/13 09:11:45;;;;;;;42.63;17.75;;;14.50;99.90;;;;;;5092128;28;20024;-72
2022/10/13 09:14:21;;;;;;;36.85;17.90;;;14.60;99.90;;;;;;5092666;28;20028;-72
2022/10/13 09:16:48;;;;;;;32.90;17.80;;;14.60;99.90;;;;;;5092552;28;20024;-71
2022/10/13 09:19:26;;;;;;;43.05;19.10;;;14.60;99.90;;;;;;5074200;28;20476;-72
2022/10/13 09:21:55;;;;;;;35.20;17.23;;;14.60;99.90;;;;;;5092299;28;20039;-71
2022/10/13 09:24:24;;;;;;;45.50;17.67;;;14.60;99.90;;;;;;5091808;28;20092;-70
2022/10/13 09:27:03;;;;;;;51.08;19.08;;;14.60;99.90;;;;;;5092326;28;20096;-72
2022/10/13 09:29:29;;;;;;;39.78;18.42;;;14.60;99.90;;;;;;5092042;28;20032;-71
2022/10/13 09:32:17;;;;;;;41.15;18.92;;;14.70;99.50;;;;;;5092336;28;20479;-71
2022/10/13 09:34:43;;;;;;;37.58;19.10;;;14.70;99.40;;;;;;5091807;28;20085;-72
2022/10/13 09:37:20;;;;;;;35.13;17.52;;;14.70;99.60;;;;;;5092469;28;20024;-71
2022/10/13 09:39:58;;;;;;;39.72;17.55;;;14.70;99.40;;;;;;5092004;28;20112;-71
2022/10/13 09:42:26;;;;;;;36.78;17.40;;;14.80;99.40;;;;;;5091898;28;20131;-70
2022/10/13 09:44:59;;;;;;;45.45;19.90;;;14.70;99.30;;;;;;5092081;28;20381;-71
2022/10/13 09:47:27;;;;;;;40.00;18.05;;;14.70;99.10;;;;;;5073741;28;20487;-73
2022/10/13 09:50:26;;;;;;;43.55;19.10;;;14.70;99.20;;;;;;5071862;28;20025;-72
2022/10/13 09:53:07;;;;;;;41.92;18.35;;;14.70;99.40;;;;;;5072351;28;20073;-71
2022/10/13 09:55:34;;;;;;;43.72;18.23;;;14.80;99.60;;;;;;5071627;28;20508;-71
2022/10/13 09:58:21;;;;;;;46.83;18.65;;;14.80;99.70;;;;;;5073517;28;20036;-72
2022/10/13 10:00:50;;;;;;;42.15;19.40;;;14.90;99.10;;;;;;5091816;28;20043;-72
2022/10/13 10:03:22;;;;;;;39.90;18.65;;;14.90;99.00;;;;;;5091677;28;20031;-72
2022/10/13 10:05:54;;;;;;;42.65;19.15;;;15.00;98.90;;;;;;5092046;28;20532;-72
2022/10/13 10:08:52;;;;;;;37.13;17.60;;;15.00;98.80;;;;;;5091959;28;20148;-72
2022/10/13 10:11:26;;;;;;;38.78;17.23;;;14.90;98.70;;;;;;5087645;28;20093;-72
2022/10/13 10:13:52;;;;;;;54.10;19.70;;;14.90;98.60;;;;;;5095527;28;20024;-71
2022/10/13 10:16:41;;;;;;;46.75;19.75;;;14.80;98.60;;;;;;5095588;28;20020;-73
2022/10/13 10:19:18;;;;;;;38.67;17.95;;;14.90;99.50;;;;;;5095575;28;20512;-72
2022/10/13 10:21:55;;;;;;;45.50;18.75;;;14.80;98.90;;;;;;5094881;28;20281;-72
2022/10/13 10:24:37;;;;;;;46.35;20.70;;;14.90;99.00;;;;;;5077135;28;20517;-72
2022/10/13 10:27:06;;;;;;;;;;;14.80;98.80;;;;;;5095518;28;20533;-73
2022/10/13 10:29:38;;;;;;;46.17;21.67;;;14.90;99.20;;;;;;5095240;28;19904;-72
2022/10/13 10:32:10;;;;;;;42.33;20.52;;;14.90;99.10;;;;;;5095449;28;20055;-72
2022/10/13 10:34:47;;;;;;;50.35;20.60;;;14.90;99.50;;;;;;5094599;28;20035;-71
2022/10/13 10:37:38;;;;;;;51.90;21.15;;;15.00;99.60;;;;;;5094274;28;20029;-72
2022/10/13 10:40:23;;;;;;;44.97;20.08;;;15.00;99.60;;;;;;5076542;28;20103;-71
2022/10/13 10:43:18;;;;;;;51.70;21.25;;;15.10;99.30;;;;;;5094736;28;20028;-71
2022/10/13 10:45:46;;;;;;;55.63;25.15;;;15.20;99.00;;;;;;5094418;28;20032;-72
2022/10/13 10:48:21;;;;;;;48.92;21.40;;;15.20;98.90;;;;;;5095044;28;20028;-72
2022/10/13 10:50:49;;;;;;;42.95;20.35;;;15.20;98.90;;;;;;5094513;28;20063;-71
2022/10/13 10:53:30;;;;;;;44.60;18.92;;;15.30;98.80;;;;;;5094855;28;20099;-71
2022/10/13 10:56:30;;;;;;;50.55;21.33;;;15.30;98.70;;;;;;5094324;28;20079;-71
2022/10/13 10:59:14;;;;;;;45.63;19.65;;;15.30;98.20;;;;;;5094804;28;20056;-72
2022/10/13 11:02:06;;;;;;;41.75;19.23;;;15.30;98.10;;;;;;5094454;28;20475;-72
2022/10/13 11:04:47;;;;;;;46.20;21.65;;;15.30;98.20;;;;;;5094210;28;20500;-71
2022/10/13 11:07:21;;;;;;;49.10;20.13;;;15.30;98.00;;;;;;5094762;28;20028;-73
2022/10/13 11:09:47;;;;;;;47.47;21.35;;;15.40;97.90;;;;;;5094189;28;20024;-71
2022/10/13 11:12:19;;;;;;;48.55;21.35;;;15.40;97.90;;;;;;5094554;28;20465;-72
2022/10/13 11:15:09;;;;;;;43.88;20.83;;;15.40;97.80;;;;;;5094197;28;20035;-71
2022/10/13 11:17:36;;;;;;;42.63;19.30;;;15.40;97.60;;;;;;5045992;28;20044;-71
2022/10/13 11:20:20;;;;;;;43.35;18.58;;;15.40;97.70;;;;;;5094442;28;20028;-71
2022/10/13 11:22:58;;;;;;;47.72;20.60;;;15.40;97.70;;;;;;5093551;28;20118;-71
2022/10/13 11:25:39;;;;;;;44.53;20.27;;;15.40;97.80;;;;;;5093926;28;20107;-72
2022/10/13 11:28:19;;;;;;;43.25;19.95;;;15.40;97.70;;;;;;5094307;28;20115;-71
2022/10/13 11:30:49;;;;;;;45.20;19.25;;;15.40;97.40;;;;;;5093710;28;20024;-72
2022/10/13 11:33:33;;;;;;;49.05;19.23;;;15.50;97.70;;;;;;5094468;28;20368;-72
2022/10/13 11:36:38;;;;;;;47.47;19.25;;;15.50;97.50;;;;;;5094099;28;20025;-72
2022/10/13 11:39:12;;;;;;;44.72;19.73;;;15.50;97.50;;;;;;5094054;28;20027;-72
2022/10/13 11:42:01;;;;;;;40.45;19.38;;;15.50;96.90;;;;;;5093751;28;20024;-72
2022/10/13 11:44:39;;;;;;;44.22;19.67;;;15.50;97.40;;;;;;5082351;28;20055;-72
2022/10/13 11:47:33;;;;;;;43.25;19.40;;;15.60;97.10;;;;;;5055762;28;20472;-71
2022/10/13 11:50:20;;;;;;;46.55;19.27;;;15.60;97.10;;;;;;5073660;28;20028;-71
2022/10/13 11:53:10;;;;;;;32.80;17.63;;;15.60;97.10;;;;;;5073190;28;20035;-71
2022/10/13 11:55:49;;;;;;;43.28;17.50;;;15.80;97.10;;;;;;5072618;28;20053;-71
2022/10/13 11:58:16;;;;;;;40.58;19.15;;;15.80;96.90;;;;;;5086054;28;20104;-71
2022/10/13 12:00:51;;;;;;;44.38;19.73;;;15.90;96.60;;;;;;5093045;28;20384;-71
2022/10/13 12:03:28;;;;;;;39.42;19.05;;;15.90;95.90;;;;;;5093591;28;20032;-72
2022/10/13 12:05:58;;;;;;;43.45;19.67;;;15.90;95.80;;;;;;5092899;28;20388;-72
2022/10/13 12:08:26;;;;;;;38.28;19.02;;;16.00;95.70;;;;;;5093500;28;20031;-73
2022/10/13 12:10:58;;;;;;;40.10;19.45;;;16.00;95.20;;;;;;5092877;28;20465;-72
2022/10/13 12:13:27;;;;;;;40.92;19.23;;;16.00;95.20;;;;;;5075437;28;20073;-72
2022/10/13 12:16:07;;;;;;;38.13;19.00;;;16.00;95.40;;;;;;5092597;28;20364;-72
2022/10/13 12:18:38;;;;;;;46.15;20.00;;;16.00;95.40;;;;;;5092969;28;20081;-71
2022/10/13 12:21:20;;;;;;;46.70;19.45;;;16.00;95.30;;;;;;5093308;28;20031;-72
2022/10/13 12:23:50;;;;;;;47.20;20.95;;;16.00;95.60;;;;;;5092590;28;20028;-72
2022/10/13 12:26:18;;;;;;;40.80;19.63;;;16.00;95.30;;;;;;5092573;28;20023;-72
2022/10/13 12:29:13;;;;;;;44.83;20.77;;;15.90;95.60;;;;;;5092097;28;20038;-72
2022/10/13 12:31:47;;;;;;;42.33;19.88;;;15.90;95.70;;;;;;5089968;28;20040;-72
2022/10/13 12:34:21;;;;;;;50.55;21.45;;;15.80;96.00;;;;;;5092486;28;20372;-73
2022/10/13 12:36:57;;;;;;;40.30;19.60;;;15.90;95.90;;;;;;5092707;28;20077;-72
2022/10/13 12:39:24;;;;;;;38.97;18.70;;;15.90;96.20;;;;;;5093532;28;20024;-73
2022/10/13 12:41:50;;;;;;;42.10;19.33;;;15.90;96.00;;;;;;5092442;28;20502;-71
2022/10/13 12:44:29;;;;;;;43.85;19.85;;;16.00;95.80;;;;;;5092665;28;20090;-71
2022/10/13 12:46:58;;;;;;;46.95;20.40;;;16.00;95.80;;;;;;5092249;28;20040;-71
2022/10/13 12:49:24;;;;;;;47.55;21.50;;;16.00;95.90;;;;;;5092844;28;20025;-71